sensor_id;sensor_type;location;lat;lon;timestamp;P1;durP1;ratioP1;P2;durP2;ratioP2
3543;SDS011;1786;52.870;9.578;2022-09-09T00:06:50;19.67;;;17.30;;
3543;SDS011;1786;52.870;9.578;2022-09-09T00:09:29;21.33;;;16.10;;
3543;SDS011;1786;52.870;9.578;2022-09-09T00:12:11;20.30;;;16.47;;
3543;SDS011;1786;52.870;9.578;2022-09-09T00:20:52;18.93;;;16.00;;
3543;SDS011;1786;52.870;9.578;2022-09-09T00:23:31;16.80;;;15.10;;
3543;SDS011;1786;52.870;9.578;2022-09-09T00:26:11;19.77;;;15.53;;
3543;SDS011;1786;52.870;9.578;2022-09-09T00:29:10;22.50;;;15.00;;
3543;SDS011;1786;52.870;9.578;2022-09-09T00:31:48;19.10;;;16.23;;
3543;SDS011;1786;52.870;9.578;2022-09-09T00:34:19;21.43;;;15.97;;
3543;SDS011;1786;52.870;9.578;2022-09-09T00:36:49;17.50;;;15.23;;
3543;SDS011;1786;52.870;9.578;2022-09-09T00:42:08;17.40;;;14.90;;
3543;SDS011;1786;52.870;9.578;2022-09-09T00:44:51;18.50;;;14.87;;
3543;SDS011;1786;52.870;9.578;2022-09-09T00:58:35;18.30;;;15.47;;
3543;SDS011;1786;52.870;9.578;2022-09-09T01:11:52;17.67;;;14.10;;
3543;SDS011;1786;52.870;9.578;2022-09-09T01:14:28;18.30;;;13.97;;
3543;SDS011;1786;52.870;9.578;2022-09-09T01:16:58;15.57;;;13.30;;
3543;SDS011;1786;52.870;9.578;2022-09-09T01:19:52;14.97;;;12.00;;
3543;SDS011;1786;52.870;9.578;2022-09-09T01:22:46;22.00;;;12.80;;
3543;SDS011;1786;52.870;9.578;2022-09-09T01:28:27;15.53;;;12.40;;
3543;SDS011;1786;52.870;9.578;2022-09-09T01:31:01;20.40;;;12.53;;
3543;SDS011;1786;52.870;9.578;2022-09-09T01:33:37;16.37;;;11.17;;
3543;SDS011;1786;52.870;9.578;2022-09-09T01:36:12;25.73;;;11.10;;
3543;SDS011;1786;52.870;9.578;2022-09-09T01:38:52;12.40;;;9.90;;
3543;SDS011;1786;52.870;9.578;2022-09-09T01:41:20;12.20;;;11.00;;
3543;SDS011;1786;52.870;9.578;2022-09-09T01:43:58;18.50;;;10.23;;
3543;SDS011;1786;52.870;9.578;2022-09-09T01:46:27;11.97;;;10.83;;
3543;SDS011;1786;52.870;9.578;2022-09-09T01:48:55;12.47;;;11.20;;
3543;SDS011;1786;52.870;9.578;2022-09-09T01:51:23;10.90;;;9.90;;
3543;SDS011;1786;52.870;9.578;2022-09-09T01:53:51;15.27;;;10.30;;
3543;SDS011;1786;52.870;9.578;2022-09-09T01:56:21;11.90;;;9.90;;
3543;SDS011;1786;52.870;9.578;2022-09-09T02:04:41;10.33;;;8.57;;
3543;SDS011;1786;52.870;9.578;2022-09-09T02:12:51;13.03;;;10.40;;
3543;SDS011;1786;52.870;9.578;2022-09-09T02:15:24;10.50;;;9.40;;
3543;SDS011;1786;52.870;9.578;2022-09-09T02:17:57;10.80;;;9.80;;
3543;SDS011;1786;52.870;9.578;2022-09-09T02:20:28;12.23;;;9.67;;
3543;SDS011;1786;52.870;9.578;2022-09-09T02:23:00;9.20;;;8.33;;
3543;SDS011;1786;52.870;9.578;2022-09-09T02:25:29;17.37;;;9.83;;
3543;SDS011;1786;52.870;9.578;2022-09-09T02:28:06;10.53;;;8.80;;
3543;SDS011;1786;52.870;9.578;2022-09-09T02:30:37;12.60;;;8.40;;
3543;SDS011;1786;52.870;9.578;2022-09-09T02:33:06;14.10;;;7.90;;
3543;SDS011;1786;52.870;9.578;2022-09-09T02:35:42;9.43;;;8.10;;
3543;SDS011;1786;52.870;9.578;2022-09-09T02:38:13;10.23;;;8.20;;
3543;SDS011;1786;52.870;9.578;2022-09-09T02:40:52;8.87;;;8.00;;
3543;SDS011;1786;52.870;9.578;2022-09-09T02:43:19;15.20;;;7.67;;
3543;SDS011;1786;52.870;9.578;2022-09-09T02:45:51;10.53;;;6.97;;
3543;SDS011;1786;52.870;9.578;2022-09-09T02:48:30;8.43;;;7.53;;
3543;SDS011;1786;52.870;9.578;2022-09-09T02:51:13;13.20;;;8.13;;
3543;SDS011;1786;52.870;9.578;2022-09-09T02:56:33;14.53;;;6.97;;
3543;SDS011;1786;52.870;9.578;2022-09-09T02:59:07;7.73;;;6.93;;
3543;SDS011;1786;52.870;9.578;2022-09-09T03:01:35;9.27;;;7.40;;
3543;SDS011;1786;52.870;9.578;2022-09-09T03:04:02;6.70;;;6.10;;
3543;SDS011;1786;52.870;9.578;2022-09-09T03:06:32;7.47;;;6.57;;
3543;SDS011;1786;52.870;9.578;2022-09-09T03:09:08;7.40;;;6.70;;
3543;SDS011;1786;52.870;9.578;2022-09-09T03:11:37;8.53;;;6.07;;
3543;SDS011;1786;52.870;9.578;2022-09-09T03:14:05;6.53;;;5.93;;
3543;SDS011;1786;52.870;9.578;2022-09-09T03:16:34;6.57;;;5.53;;
3543;SDS011;1786;52.870;9.578;2022-09-09T03:19:01;5.77;;;5.10;;
3543;SDS011;1786;52.870;9.578;2022-09-09T03:21:28;5.87;;;5.40;;
3543;SDS011;1786;52.870;9.578;2022-09-09T03:23:55;7.60;;;5.70;;
3543;SDS011;1786;52.870;9.578;2022-09-09T03:26:23;7.33;;;5.13;;
3543;SDS011;1786;52.870;9.578;2022-09-09T03:28:50;6.33;;;5.17;;
3543;SDS011;1786;52.870;9.578;2022-09-09T03:31:20;5.33;;;4.83;;
3543;SDS011;1786;52.870;9.578;2022-09-09T03:33:47;10.67;;;4.83;;
3543;SDS011;1786;52.870;9.578;2022-09-09T03:36:15;4.77;;;3.90;;
3543;SDS011;1786;52.870;9.578;2022-09-09T03:38:43;8.90;;;4.50;;
3543;SDS011;1786;52.870;9.578;2022-09-09T03:41:11;4.40;;;3.97;;
3543;SDS011;1786;52.870;9.578;2022-09-09T03:43:39;4.87;;;3.77;;
3543;SDS011;1786;52.870;9.578;2022-09-09T03:46:05;8.37;;;3.67;;
3543;SDS011;1786;52.870;9.578;2022-09-09T03:48:32;4.33;;;3.70;;
3543;SDS011;1786;52.870;9.578;2022-09-09T03:50:59;5.63;;;3.97;;
3543;SDS011;1786;52.870;9.578;2022-09-09T03:53:30;11.30;;;4.07;;
3543;SDS011;1786;52.870;9.578;2022-09-09T03:55:57;3.90;;;3.30;;
3543;SDS011;1786;52.870;9.578;2022-09-09T03:58:26;3.97;;;3.50;;
3543;SDS011;1786;52.870;9.578;2022-09-09T04:03:27;6.77;;;3.97;;
3543;SDS011;1786;52.870;9.578;2022-09-09T04:05:55;7.43;;;3.80;;
3543;SDS011;1786;52.870;9.578;2022-09-09T04:08:25;6.03;;;3.60;;
3543;SDS011;1786;52.870;9.578;2022-09-09T04:10:53;6.43;;;3.87;;
3543;SDS011;1786;52.870;9.578;2022-09-09T04:13:25;6.30;;;4.00;;
3543;SDS011;1786;52.870;9.578;2022-09-09T04:15:57;8.77;;;7.20;;
3543;SDS011;1786;52.870;9.578;2022-09-09T04:18:25;6.50;;;3.83;;
3543;SDS011;1786;52.870;9.578;2022-09-09T04:20:52;3.33;;;3.23;;
3543;SDS011;1786;52.870;9.578;2022-09-09T04:23:23;10.30;;;4.40;;
3543;SDS011;1786;52.870;9.578;2022-09-09T04:25:52;5.30;;;4.70;;
3543;SDS011;1786;52.870;9.578;2022-09-09T04:28:22;5.13;;;3.67;;
3543;SDS011;1786;52.870;9.578;2022-09-09T04:30:50;10.57;;;4.00;;
3543;SDS011;1786;52.870;9.578;2022-09-09T04:33:17;11.50;;;3.40;;
3543;SDS011;1786;52.870;9.578;2022-09-09T04:35:48;3.53;;;3.13;;
3543;SDS011;1786;52.870;9.578;2022-09-09T04:38:17;4.13;;;3.33;;
3543;SDS011;1786;52.870;9.578;2022-09-09T04:40:48;7.83;;;5.50;;
3543;SDS011;1786;52.870;9.578;2022-09-09T04:43:18;5.67;;;2.97;;
3543;SDS011;1786;52.870;9.578;2022-09-09T04:45:49;9.87;;;3.20;;
3543;SDS011;1786;52.870;9.578;2022-09-09T04:48:20;11.13;;;4.10;;
3543;SDS011;1786;52.870;9.578;2022-09-09T04:50:55;3.53;;;3.23;;
3543;SDS011;1786;52.870;9.578;2022-09-09T04:53:29;9.03;;;2.77;;
3543;SDS011;1786;52.870;9.578;2022-09-09T04:56:01;3.60;;;3.40;;
3543;SDS011;1786;52.870;9.578;2022-09-09T04:58:32;8.70;;;4.30;;
3543;SDS011;1786;52.870;9.578;2022-09-09T05:01:06;7.17;;;4.40;;
3543;SDS011;1786;52.870;9.578;2022-09-09T05:03:36;6.90;;;3.87;;
3543;SDS011;1786;52.870;9.578;2022-09-09T05:06:06;5.50;;;4.10;;
3543;SDS011;1786;52.870;9.578;2022-09-09T05:08:36;14.00;;;2.90;;
3543;SDS011;1786;52.870;9.578;2022-09-09T05:11:12;7.50;;;4.03;;
3543;SDS011;1786;52.870;9.578;2022-09-09T05:13:52;7.03;;;3.90;;
3543;SDS011;1786;52.870;9.578;2022-09-09T05:16:19;3.20;;;3.10;;
3543;SDS011;1786;52.870;9.578;2022-09-09T05:18:47;4.13;;;3.60;;
3543;SDS011;1786;52.870;9.578;2022-09-09T05:21:16;4.63;;;3.80;;
3543;SDS011;1786;52.870;9.578;2022-09-09T05:23:44;3.93;;;3.63;;
3543;SDS011;1786;52.870;9.578;2022-09-09T05:26:13;5.93;;;4.43;;
3543;SDS011;1786;52.870;9.578;2022-09-09T05:28:47;5.83;;;3.40;;
3543;SDS011;1786;52.870;9.578;2022-09-09T05:31:15;3.30;;;3.03;;
3543;SDS011;1786;52.870;9.578;2022-09-09T05:33:45;4.07;;;2.73;;
3543;SDS011;1786;52.870;9.578;2022-09-09T05:36:16;2.60;;;2.40;;
3543;SDS011;1786;52.870;9.578;2022-09-09T05:38:45;7.27;;;2.30;;
3543;SDS011;1786;52.870;9.578;2022-09-09T05:41:13;3.40;;;2.20;;
3543;SDS011;1786;52.870;9.578;2022-09-09T05:43:42;2.93;;;2.73;;
3543;SDS011;1786;52.870;9.578;2022-09-09T05:46:14;6.37;;;2.40;;
3543;SDS011;1786;52.870;9.578;2022-09-09T05:48:48;6.73;;;2.60;;
3543;SDS011;1786;52.870;9.578;2022-09-09T05:51:22;3.07;;;2.53;;
3543;SDS011;1786;52.870;9.578;2022-09-09T05:53:52;5.70;;;2.97;;
3543;SDS011;1786;52.870;9.578;2022-09-09T05:56:22;2.10;;;2.00;;
3543;SDS011;1786;52.870;9.578;2022-09-09T05:58:52;6.57;;;2.37;;
3543;SDS011;1786;52.870;9.578;2022-09-09T06:01:25;1.83;;;1.73;;
3543;SDS011;1786;52.870;9.578;2022-09-09T06:03:53;3.40;;;1.97;;
3543;SDS011;1786;52.870;9.578;2022-09-09T06:06:23;2.03;;;1.83;;
3543;SDS011;1786;52.870;9.578;2022-09-09T06:08:57;5.47;;;2.90;;
3543;SDS011;1786;52.870;9.578;2022-09-09T06:11:27;2.17;;;2.10;;
3543;SDS011;1786;52.870;9.578;2022-09-09T06:13:58;4.10;;;2.70;;
3543;SDS011;1786;52.870;9.578;2022-09-09T06:16:27;8.03;;;2.17;;
3543;SDS011;1786;52.870;9.578;2022-09-09T06:18:56;2.60;;;1.70;;
3543;SDS011;1786;52.870;9.578;2022-09-09T06:21:26;4.70;;;2.70;;
3543;SDS011;1786;52.870;9.578;2022-09-09T06:23:54;1.90;;;1.80;;
3543;SDS011;1786;52.870;9.578;2022-09-09T06:26:27;2.70;;;1.90;;
3543;SDS011;1786;52.870;9.578;2022-09-09T06:29:01;2.27;;;1.53;;
3543;SDS011;1786;52.870;9.578;2022-09-09T06:31:31;2.70;;;1.90;;
3543;SDS011;1786;52.870;9.578;2022-09-09T06:34:10;2.10;;;1.43;;
3543;SDS011;1786;52.870;9.578;2022-09-09T06:36:40;2.40;;;1.40;;
3543;SDS011;1786;52.870;9.578;2022-09-09T06:39:07;4.07;;;1.73;;
3543;SDS011;1786;52.870;9.578;2022-09-09T06:41:40;6.00;;;3.20;;
3543;SDS011;1786;52.870;9.578;2022-09-09T06:44:45;6.50;;;1.53;;
3543;SDS011;1786;52.870;9.578;2022-09-09T06:47:19;3.80;;;1.30;;
3543;SDS011;1786;52.870;9.578;2022-09-09T06:49:46;2.03;;;1.20;;
3543;SDS011;1786;52.870;9.578;2022-09-09T06:52:15;1.53;;;1.33;;
3543;SDS011;1786;52.870;9.578;2022-09-09T06:54:42;1.80;;;1.70;;
3543;SDS011;1786;52.870;9.578;2022-09-09T06:57:09;1.43;;;1.33;;
3543;SDS011;1786;52.870;9.578;2022-09-09T06:59:56;3.40;;;1.50;;
3543;SDS011;1786;52.870;9.578;2022-09-09T07:02:23;8.57;;;1.33;;
3543;SDS011;1786;52.870;9.578;2022-09-09T07:04:51;3.90;;;1.43;;
3543;SDS011;1786;52.870;9.578;2022-09-09T07:07:19;3.23;;;1.47;;
3543;SDS011;1786;52.870;9.578;2022-09-09T07:09:46;4.13;;;1.60;;
3543;SDS011;1786;52.870;9.578;2022-09-09T07:12:14;5.90;;;1.30;;
3543;SDS011;1786;52.870;9.578;2022-09-09T07:14:48;2.83;;;1.13;;
3543;SDS011;1786;52.870;9.578;2022-09-09T07:17:15;6.63;;;1.57;;
3543;SDS011;1786;52.870;9.578;2022-09-09T07:19:42;3.17;;;1.60;;
3543;SDS011;1786;52.870;9.578;2022-09-09T07:22:09;1.73;;;1.47;;
3543;SDS011;1786;52.870;9.578;2022-09-09T07:24:38;4.47;;;1.40;;
3543;SDS011;1786;52.870;9.578;2022-09-09T07:27:06;2.30;;;1.93;;
3543;SDS011;1786;52.870;9.578;2022-09-09T07:29:33;4.53;;;1.37;;
3543;SDS011;1786;52.870;9.578;2022-09-09T07:32:00;3.47;;;1.83;;
3543;SDS011;1786;52.870;9.578;2022-09-09T07:34:32;7.23;;;1.40;;
3543;SDS011;1786;52.870;9.578;2022-09-09T07:36:58;5.53;;;1.27;;
3543;SDS011;1786;52.870;9.578;2022-09-09T07:39:25;3.17;;;1.60;;
3543;SDS011;1786;52.870;9.578;2022-09-09T07:41:53;3.17;;;1.20;;
3543;SDS011;1786;52.870;9.578;2022-09-09T07:44:23;4.87;;;1.80;;
3543;SDS011;1786;52.870;9.578;2022-09-09T07:47:13;1.77;;;1.67;;
3543;SDS011;1786;52.870;9.578;2022-09-09T07:49:45;13.40;;;2.07;;
3543;SDS011;1786;52.870;9.578;2022-09-09T07:52:16;2.83;;;1.30;;
3543;SDS011;1786;52.870;9.578;2022-09-09T07:54:48;2.27;;;1.40;;
3543;SDS011;1786;52.870;9.578;2022-09-09T07:57:16;2.60;;;1.40;;
3543;SDS011;1786;52.870;9.578;2022-09-09T07:59:45;1.23;;;0.90;;
3543;SDS011;1786;52.870;9.578;2022-09-09T08:02:12;7.37;;;1.37;;
3543;SDS011;1786;52.870;9.578;2022-09-09T08:04:39;4.30;;;1.70;;
3543;SDS011;1786;52.870;9.578;2022-09-09T08:07:06;2.20;;;1.23;;
3543;SDS011;1786;52.870;9.578;2022-09-09T08:09:40;2.70;;;1.33;;
3543;SDS011;1786;52.870;9.578;2022-09-09T08:12:13;1.53;;;1.40;;
3543;SDS011;1786;52.870;9.578;2022-09-09T08:14:40;1.83;;;1.60;;
3543;SDS011;1786;52.870;9.578;2022-09-09T08:17:07;3.10;;;1.30;;
3543;SDS011;1786;52.870;9.578;2022-09-09T08:19:34;4.27;;;1.67;;
3543;SDS011;1786;52.870;9.578;2022-09-09T08:22:05;2.20;;;1.30;;
3543;SDS011;1786;52.870;9.578;2022-09-09T08:24:34;5.00;;;1.70;;
3543;SDS011;1786;52.870;9.578;2022-09-09T08:27:02;3.90;;;1.93;;
3543;SDS011;1786;52.870;9.578;2022-09-09T08:29:28;23.63;;;1.87;;
3543;SDS011;1786;52.870;9.578;2022-09-09T08:31:57;3.23;;;1.20;;
3543;SDS011;1786;52.870;9.578;2022-09-09T08:34:25;4.40;;;1.73;;
3543;SDS011;1786;52.870;9.578;2022-09-09T08:36:55;2.77;;;1.40;;
3543;SDS011;1786;52.870;9.578;2022-09-09T08:39:28;2.65;;;1.30;;
3543;SDS011;1786;52.870;9.578;2022-09-09T08:45:12;9.07;;;1.50;;
3543;SDS011;1786;52.870;9.578;2022-09-09T08:47:52;3.28;;;1.20;;
3543;SDS011;1786;52.870;9.578;2022-09-09T08:50:29;9.50;;;1.50;;
3543;SDS011;1786;52.870;9.578;2022-09-09T08:55:41;3.03;;;1.90;;
3543;SDS011;1786;52.870;9.578;2022-09-09T08:58:17;3.90;;;1.60;;
3543;SDS011;1786;52.870;9.578;2022-09-09T09:03:46;2.13;;;1.97;;
3543;SDS011;1786;52.870;9.578;2022-09-09T09:06:33;4.23;;;1.60;;
3543;SDS011;1786;52.870;9.578;2022-09-09T09:09:11;2.30;;;1.60;;
3543;SDS011;1786;52.870;9.578;2022-09-09T09:11:51;2.20;;;1.60;;
3543;SDS011;1786;52.870;9.578;2022-09-09T09:14:23;1.80;;;1.50;;
3543;SDS011;1786;52.870;9.578;2022-09-09T09:16:57;10.13;;;1.50;;
3543;SDS011;1786;52.870;9.578;2022-09-09T09:19:27;2.40;;;1.30;;
3543;SDS011;1786;52.870;9.578;2022-09-09T09:27:51;5.73;;;1.60;;
3543;SDS011;1786;52.870;9.578;2022-09-09T09:30:29;4.00;;;1.57;;
3543;SDS011;1786;52.870;9.578;2022-09-09T09:33:08;4.83;;;1.57;;
3543;SDS011;1786;52.870;9.578;2022-09-09T09:35:49;1.70;;;1.50;;
3543;SDS011;1786;52.870;9.578;2022-09-09T09:38:18;8.20;;;1.40;;
3543;SDS011;1786;52.870;9.578;2022-09-09T09:41:10;2.30;;;1.50;;
3543;SDS011;1786;52.870;9.578;2022-09-09T09:43:39;5.47;;;1.70;;
3543;SDS011;1786;52.870;9.578;2022-09-09T09:46:20;4.53;;;1.70;;
3543;SDS011;1786;52.870;9.578;2022-09-09T09:49:00;9.43;;;1.30;;
3543;SDS011;1786;52.870;9.578;2022-09-09T09:51:32;2.97;;;1.40;;
3543;SDS011;1786;52.870;9.578;2022-09-09T09:56:41;5.83;;;1.70;;
3543;SDS011;1786;52.870;9.578;2022-09-09T09:59:19;3.50;;;1.50;;
3543;SDS011;1786;52.870;9.578;2022-09-09T10:02:19;6.50;;;1.80;;
3543;SDS011;1786;52.870;9.578;2022-09-09T10:05:01;5.03;;;1.77;;
3543;SDS011;1786;52.870;9.578;2022-09-09T10:07:34;1.63;;;1.53;;
3543;SDS011;1786;52.870;9.578;2022-09-09T10:10:03;4.60;;;1.90;;
3543;SDS011;1786;52.870;9.578;2022-09-09T10:12:44;1.63;;;1.53;;
3543;SDS011;1786;52.870;9.578;2022-09-09T10:18:04;3.30;;;1.50;;
3543;SDS011;1786;52.870;9.578;2022-09-09T10:20:54;2.43;;;1.63;;
3543;SDS011;1786;52.870;9.578;2022-09-09T10:26:29;6.77;;;2.00;;
3543;SDS011;1786;52.870;9.578;2022-09-09T10:32:10;2.80;;;1.40;;
3543;SDS011;1786;52.870;9.578;2022-09-09T10:35:01;5.30;;;1.63;;
3543;SDS011;1786;52.870;9.578;2022-09-09T10:40:50;3.80;;;1.63;;
3543;SDS011;1786;52.870;9.578;2022-09-09T10:49:20;9.03;;;1.80;;
3543;SDS011;1786;52.870;9.578;2022-09-09T10:52:07;3.07;;;1.40;;
3543;SDS011;1786;52.870;9.578;2022-09-09T10:54:56;3.80;;;1.83;;
3543;SDS011;1786;52.870;9.578;2022-09-09T10:57:37;1.43;;;1.27;;
3543;SDS011;1786;52.870;9.578;2022-09-09T11:03:03;1.47;;;1.37;;
3543;SDS011;1786;52.870;9.578;2022-09-09T11:05:31;5.77;;;2.10;;
3543;SDS011;1786;52.870;9.578;2022-09-09T11:08:02;5.23;;;1.83;;
3543;SDS011;1786;52.870;9.578;2022-09-09T11:10:40;17.33;;;1.80;;
3543;SDS011;1786;52.870;9.578;2022-09-09T11:19:13;21.70;;;1.60;;
3543;SDS011;1786;52.870;9.578;2022-09-09T11:21:44;12.10;;;1.60;;
3543;SDS011;1786;52.870;9.578;2022-09-09T11:24:18;20.33;;;2.30;;
3543;SDS011;1786;52.870;9.578;2022-09-09T11:27:02;20.37;;;1.67;;
3543;SDS011;1786;52.870;9.578;2022-09-09T11:29:52;13.23;;;1.40;;
3543;SDS011;1786;52.870;9.578;2022-09-09T11:35:38;4.50;;;1.20;;
3543;SDS011;1786;52.870;9.578;2022-09-09T11:41:01;4.20;;;1.03;;
3543;SDS011;1786;52.870;9.578;2022-09-09T11:43:44;4.17;;;1.20;;
3543;SDS011;1786;52.870;9.578;2022-09-09T11:46:14;4.00;;;1.60;;
3543;SDS011;1786;52.870;9.578;2022-09-09T11:48:44;2.33;;;1.10;;
3543;SDS011;1786;52.870;9.578;2022-09-09T11:51:24;7.13;;;1.30;;
3543;SDS011;1786;52.870;9.578;2022-09-09T11:56:58;2.60;;;1.13;;
3543;SDS011;1786;52.870;9.578;2022-09-09T11:59:29;2.40;;;1.40;;
3543;SDS011;1786;52.870;9.578;2022-09-09T12:01:58;4.10;;;0.90;;
3543;SDS011;1786;52.870;9.578;2022-09-09T12:04:38;3.07;;;1.30;;
3543;SDS011;1786;52.870;9.578;2022-09-09T12:12:38;1.80;;;1.30;;
3543;SDS011;1786;52.870;9.578;2022-09-09T12:17:37;5.87;;;1.53;;
3543;SDS011;1786;52.870;9.578;2022-09-09T12:20:16;5.37;;;1.60;;
3543;SDS011;1786;52.870;9.578;2022-09-09T12:28:22;8.03;;;2.27;;
3543;SDS011;1786;52.870;9.578;2022-09-09T12:33:39;4.17;;;1.40;;
3543;SDS011;1786;52.870;9.578;2022-09-09T12:36:12;6.37;;;1.90;;
3543;SDS011;1786;52.870;9.578;2022-09-09T12:38:43;10.03;;;1.97;;
3543;SDS011;1786;52.870;9.578;2022-09-09T12:41:50;6.00;;;3.07;;
3543;SDS011;1786;52.870;9.578;2022-09-09T12:44:04;3.83;;;1.77;;
3543;SDS011;1786;52.870;9.578;2022-09-09T12:46:38;5.90;;;2.07;;
3543;SDS011;1786;52.870;9.578;2022-09-09T12:51:54;8.17;;;2.30;;
3543;SDS011;1786;52.870;9.578;2022-09-09T12:54:23;5.50;;;1.80;;
3543;SDS011;1786;52.870;9.578;2022-09-09T12:56:50;6.50;;;1.70;;
3543;SDS011;1786;52.870;9.578;2022-09-09T12:59:24;3.80;;;1.70;;
3543;SDS011;1786;52.870;9.578;2022-09-09T13:01:57;4.67;;;1.30;;
3543;SDS011;1786;52.870;9.578;2022-09-09T13:04:25;8.50;;;2.00;;
3543;SDS011;1786;52.870;9.578;2022-09-09T13:06:52;3.57;;;1.50;;
3543;SDS011;1786;52.870;9.578;2022-09-09T13:09:18;11.23;;;1.93;;
3543;SDS011;1786;52.870;9.578;2022-09-09T13:11:50;1.87;;;1.70;;
3543;SDS011;1786;52.870;9.578;2022-09-09T13:14:26;7.03;;;2.17;;
3543;SDS011;1786;52.870;9.578;2022-09-09T13:16:57;8.77;;;2.77;;
3543;SDS011;1786;52.870;9.578;2022-09-09T13:19:26;6.57;;;2.43;;
3543;SDS011;1786;52.870;9.578;2022-09-09T13:21:57;5.20;;;1.90;;
3543;SDS011;1786;52.870;9.578;2022-09-09T13:26:59;2.73;;;1.63;;
3543;SDS011;1786;52.870;9.578;2022-09-09T13:29:31;3.83;;;1.80;;
3543;SDS011;1786;52.870;9.578;2022-09-09T13:32:05;5.40;;;1.50;;
3543;SDS011;1786;52.870;9.578;2022-09-09T13:34:54;3.17;;;1.50;;
3543;SDS011;1786;52.870;9.578;2022-09-09T13:37:24;4.33;;;1.60;;
3543;SDS011;1786;52.870;9.578;2022-09-09T13:39:57;4.67;;;1.60;;
3543;SDS011;1786;52.870;9.578;2022-09-09T13:42:25;2.10;;;1.27;;
3543;SDS011;1786;52.870;9.578;2022-09-09T13:44:55;2.67;;;1.53;;
3543;SDS011;1786;52.870;9.578;2022-09-09T13:47:29;2.40;;;1.20;;
3543;SDS011;1786;52.870;9.578;2022-09-09T13:49:58;4.90;;;1.50;;
3543;SDS011;1786;52.870;9.578;2022-09-09T13:52:25;4.63;;;1.70;;
3543;SDS011;1786;52.870;9.578;2022-09-09T13:54:53;5.70;;;1.40;;
3543;SDS011;1786;52.870;9.578;2022-09-09T13:57:22;4.60;;;1.40;;
3543;SDS011;1786;52.870;9.578;2022-09-09T13:59:54;3.03;;;1.17;;
3543;SDS011;1786;52.870;9.578;2022-09-09T14:02:31;1.80;;;1.20;;
3543;SDS011;1786;52.870;9.578;2022-09-09T14:04:57;2.03;;;1.20;;
3543;SDS011;1786;52.870;9.578;2022-09-09T14:07:24;4.10;;;1.23;;
3543;SDS011;1786;52.870;9.578;2022-09-09T14:09:51;3.83;;;2.07;;
3543;SDS011;1786;52.870;9.578;2022-09-09T14:12:19;3.07;;;1.20;;
3543;SDS011;1786;52.870;9.578;2022-09-09T14:14:46;4.17;;;1.10;;
3543;SDS011;1786;52.870;9.578;2022-09-09T14:17:13;3.20;;;1.00;;
3543;SDS011;1786;52.870;9.578;2022-09-09T14:19:40;2.73;;;1.00;;
3543;SDS011;1786;52.870;9.578;2022-09-09T14:22:07;8.10;;;1.23;;
3543;SDS011;1786;52.870;9.578;2022-09-09T14:24:33;2.00;;;1.43;;
3543;SDS011;1786;52.870;9.578;2022-09-09T14:27:00;1.60;;;0.90;;
3543;SDS011;1786;52.870;9.578;2022-09-09T14:29:27;10.97;;;1.47;;
3543;SDS011;1786;52.870;9.578;2022-09-09T14:31:54;3.37;;;1.20;;
3543;SDS011;1786;52.870;9.578;2022-09-09T14:34:21;2.00;;;1.10;;
3543;SDS011;1786;52.870;9.578;2022-09-09T14:36:47;1.10;;;0.93;;
3543;SDS011;1786;52.870;9.578;2022-09-09T14:39:14;0.90;;;0.87;;
3543;SDS011;1786;52.870;9.578;2022-09-09T14:41:41;1.70;;;1.10;;
3543;SDS011;1786;52.870;9.578;2022-09-09T14:44:07;1.10;;;0.97;;
3543;SDS011;1786;52.870;9.578;2022-09-09T14:46:35;0.80;;;0.80;;
3543;SDS011;1786;52.870;9.578;2022-09-09T14:49:02;1.47;;;1.00;;
3543;SDS011;1786;52.870;9.578;2022-09-09T14:51:29;2.83;;;0.90;;
3543;SDS011;1786;52.870;9.578;2022-09-09T14:53:56;1.90;;;0.90;;
3543;SDS011;1786;52.870;9.578;2022-09-09T14:56:25;2.20;;;1.07;;
3543;SDS011;1786;52.870;9.578;2022-09-09T14:58:54;3.37;;;1.17;;
3543;SDS011;1786;52.870;9.578;2022-09-09T15:01:22;1.60;;;1.13;;
3543;SDS011;1786;52.870;9.578;2022-09-09T15:04:00;1.17;;;0.90;;
3543;SDS011;1786;52.870;9.578;2022-09-09T15:06:31;0.90;;;0.70;;
3543;SDS011;1786;52.870;9.578;2022-09-09T15:09:00;2.00;;;1.03;;
3543;SDS011;1786;52.870;9.578;2022-09-09T15:11:28;1.97;;;1.10;;
3543;SDS011;1786;52.870;9.578;2022-09-09T15:13:56;1.20;;;1.10;;
3543;SDS011;1786;52.870;9.578;2022-09-09T15:16:25;1.17;;;0.90;;
3543;SDS011;1786;52.870;9.578;2022-09-09T15:18:54;5.80;;;1.10;;
3543;SDS011;1786;52.870;9.578;2022-09-09T15:21:24;1.80;;;1.13;;
3543;SDS011;1786;52.870;9.578;2022-09-09T15:23:53;6.20;;;2.67;;
3543;SDS011;1786;52.870;9.578;2022-09-09T15:26:21;3.33;;;1.60;;
3543;SDS011;1786;52.870;9.578;2022-09-09T15:28:48;2.70;;;1.20;;
3543;SDS011;1786;52.870;9.578;2022-09-09T15:31:18;1.57;;;1.13;;
3543;SDS011;1786;52.870;9.578;2022-09-09T15:33:46;5.10;;;1.40;;
3543;SDS011;1786;52.870;9.578;2022-09-09T15:36:24;1.20;;;1.20;;
3543;SDS011;1786;52.870;9.578;2022-09-09T15:38:52;3.40;;;1.50;;
3543;SDS011;1786;52.870;9.578;2022-09-09T15:41:19;3.03;;;1.77;;
3543;SDS011;1786;52.870;9.578;2022-09-09T15:43:48;8.63;;;1.73;;
3543;SDS011;1786;52.870;9.578;2022-09-09T15:48:43;7.70;;;1.93;;
3543;SDS011;1786;52.870;9.578;2022-09-09T15:51:13;3.43;;;1.70;;
3543;SDS011;1786;52.870;9.578;2022-09-09T15:54:00;5.80;;;1.70;;
3543;SDS011;1786;52.870;9.578;2022-09-09T15:56:28;8.93;;;1.30;;
3543;SDS011;1786;52.870;9.578;2022-09-09T15:59:02;3.07;;;1.23;;
3543;SDS011;1786;52.870;9.578;2022-09-09T16:01:31;7.30;;;1.80;;
3543;SDS011;1786;52.870;9.578;2022-09-09T16:03:59;1.97;;;1.67;;
3543;SDS011;1786;52.870;9.578;2022-09-09T16:06:27;7.97;;;1.63;;
3543;SDS011;1786;52.870;9.578;2022-09-09T16:08:55;1.20;;;1.10;;
3543;SDS011;1786;52.870;9.578;2022-09-09T16:11:25;2.60;;;1.10;;
3543;SDS011;1786;52.870;9.578;2022-09-09T16:13:53;4.40;;;1.50;;
3543;SDS011;1786;52.870;9.578;2022-09-09T16:16:22;4.90;;;1.30;;
3543;SDS011;1786;52.870;9.578;2022-09-09T16:18:54;2.97;;;1.50;;
3543;SDS011;1786;52.870;9.578;2022-09-09T16:21:29;5.30;;;1.40;;
3543;SDS011;1786;52.870;9.578;2022-09-09T16:24:00;4.90;;;1.20;;
3543;SDS011;1786;52.870;9.578;2022-09-09T16:26:29;6.00;;;1.70;;
3543;SDS011;1786;52.870;9.578;2022-09-09T16:28:57;2.70;;;1.53;;
3543;SDS011;1786;52.870;9.578;2022-09-09T16:31:25;2.87;;;1.63;;
3543;SDS011;1786;52.870;9.578;2022-09-09T16:33:53;6.77;;;1.43;;
3543;SDS011;1786;52.870;9.578;2022-09-09T16:36:24;2.80;;;1.60;;
3543;SDS011;1786;52.870;9.578;2022-09-09T16:38:53;2.20;;;1.80;;
3543;SDS011;1786;52.870;9.578;2022-09-09T16:41:21;5.07;;;1.37;;
3543;SDS011;1786;52.870;9.578;2022-09-09T16:43:51;2.50;;;1.30;;
3543;SDS011;1786;52.870;9.578;2022-09-09T16:46:20;5.50;;;1.17;;
3543;SDS011;1786;52.870;9.578;2022-09-09T16:48:48;5.90;;;1.40;;
3543;SDS011;1786;52.870;9.578;2022-09-09T16:51:19;7.40;;;2.00;;
3543;SDS011;1786;52.870;9.578;2022-09-09T16:53:51;4.93;;;1.23;;
3543;SDS011;1786;52.870;9.578;2022-09-09T16:56:19;2.97;;;1.40;;
3543;SDS011;1786;52.870;9.578;2022-09-09T16:58:51;3.80;;;1.20;;
3543;SDS011;1786;52.870;9.578;2022-09-09T17:01:20;2.73;;;1.47;;
3543;SDS011;1786;52.870;9.578;2022-09-09T17:03:47;1.63;;;1.40;;
3543;SDS011;1786;52.870;9.578;2022-09-09T17:06:14;3.73;;;1.70;;
3543;SDS011;1786;52.870;9.578;2022-09-09T17:08:41;2.00;;;1.10;;
3543;SDS011;1786;52.870;9.578;2022-09-09T17:11:15;2.03;;;1.20;;
3543;SDS011;1786;52.870;9.578;2022-09-09T17:13:45;4.43;;;1.40;;
3543;SDS011;1786;52.870;9.578;2022-09-09T17:16:13;3.70;;;1.37;;
3543;SDS011;1786;52.870;9.578;2022-09-09T17:18:42;3.13;;;1.90;;
3543;SDS011;1786;52.870;9.578;2022-09-09T17:21:09;3.63;;;1.60;;
3543;SDS011;1786;52.870;9.578;2022-09-09T17:23:39;2.90;;;2.13;;
3543;SDS011;1786;52.870;9.578;2022-09-09T17:26:08;7.30;;;1.97;;
3543;SDS011;1786;52.870;9.578;2022-09-09T17:28:37;1.93;;;1.73;;
3543;SDS011;1786;52.870;9.578;2022-09-09T17:31:05;4.40;;;2.27;;
3543;SDS011;1786;52.870;9.578;2022-09-09T17:33:36;4.30;;;1.80;;
3543;SDS011;1786;52.870;9.578;2022-09-09T17:36:09;3.33;;;1.80;;
3543;SDS011;1786;52.870;9.578;2022-09-09T17:38:41;5.10;;;1.80;;
3543;SDS011;1786;52.870;9.578;2022-09-09T17:43:45;9.87;;;1.90;;
3543;SDS011;1786;52.870;9.578;2022-09-09T17:48:40;4.60;;;1.67;;
3543;SDS011;1786;52.870;9.578;2022-09-09T17:51:09;1.87;;;1.77;;
3543;SDS011;1786;52.870;9.578;2022-09-09T17:53:39;7.50;;;2.40;;
3543;SDS011;1786;52.870;9.578;2022-09-09T17:56:08;5.67;;;2.20;;
3543;SDS011;1786;52.870;9.578;2022-09-09T17:58:37;8.60;;;1.70;;